Zumaia, Spain
Current Conditions -  °F | °C
As of 7:00 AM on Saturday 29 Nov 2014 (Local Time) from LESO Reporting Station
Light Rain Light Rain  
Wind Chill: 57°   Ceiling: Unl
Heat Index: 57°   Visibility: 6mi
Dew Point: 55°   Wind: 2mph
Humidity: 94%   Direction: NA
Pressure: 29.44"   Gusts: NA
Location:  43.29°N, 2.25°W
Report Text: LESO 290600Z VRB02KT 9999 -RA NSC 14/13 Q0997
Loading
Personal Weather Stations






























Interactive Weather Map New forecast layout! Learn more

10-Day Weather Forecast

Advertisements
Track Severe Weather on mobile